Terminal Aerodrome Forecast
Issued by NWS

Home | Current Version | Previous Version | Graphics & Text | Print | Product List | Glossary On
Versions: 1 2 3 4 5 6 7 8 9 10 11 12 13 14 15
000
FTUS43 KBIS 171139
TAFMOT
TAF
KMOT 171139Z 1712/1812 23018KT P6SM SKC
     FM171500 24019G28KT P6SM SKC
     FM171700 25022G31KT P6SM FEW250
     FM180200 25017KT P6SM SCT250 WS020/29040KT
     FM180600 26015KT P6SM SCT250=

USA.gov is the U.S. government's official web portal to all federal, state and local government web resources and services.